sensor_id;sensor_type;location;lat;lon;timestamp;P1;durP1;ratioP1;P2;durP2;ratioP2
8887;SDS011;4480;52.370;9.748;2022-07-29T00:00:51;2.13;;;1.63;;
8887;SDS011;4480;52.370;9.748;2022-07-29T00:03:18;5.20;;;1.30;;
8887;SDS011;4480;52.370;9.748;2022-07-29T00:05:45;2.60;;;1.80;;
8887;SDS011;4480;52.370;9.748;2022-07-29T00:08:13;2.67;;;1.43;;
8887;SDS011;4480;52.370;9.748;2022-07-29T00:10:40;4.83;;;1.50;;
8887;SDS011;4480;52.370;9.748;2022-07-29T00:13:08;6.37;;;1.57;;
8887;SDS011;4480;52.370;9.748;2022-07-29T00:15:36;4.20;;;1.40;;
8887;SDS011;4480;52.370;9.748;2022-07-29T00:18:04;1.73;;;1.47;;
8887;SDS011;4480;52.370;9.748;2022-07-29T00:20:31;2.73;;;1.40;;
8887;SDS011;4480;52.370;9.748;2022-07-29T00:22:58;2.90;;;1.10;;
8887;SDS011;4480;52.370;9.748;2022-07-29T00:25:25;3.20;;;1.33;;
8887;SDS011;4480;52.370;9.748;2022-07-29T00:27:53;4.30;;;1.73;;
8887;SDS011;4480;52.370;9.748;2022-07-29T00:30:20;3.30;;;1.87;;
8887;SDS011;4480;52.370;9.748;2022-07-29T00:32:49;1.70;;;1.30;;
8887;SDS011;4480;52.370;9.748;2022-07-29T00:35:16;2.60;;;1.50;;
8887;SDS011;4480;52.370;9.748;2022-07-29T00:38:01;2.30;;;1.37;;
8887;SDS011;4480;52.370;9.748;2022-07-29T00:40:28;3.33;;;1.20;;
8887;SDS011;4480;52.370;9.748;2022-07-29T00:42:55;10.00;;;1.60;;
8887;SDS011;4480;52.370;9.748;2022-07-29T00:45:22;2.80;;;1.30;;
8887;SDS011;4480;52.370;9.748;2022-07-29T00:47:51;2.53;;;1.47;;
8887;SDS011;4480;52.370;9.748;2022-07-29T00:50:18;3.87;;;2.00;;
8887;SDS011;4480;52.370;9.748;2022-07-29T00:52:45;3.43;;;1.50;;
8887;SDS011;4480;52.370;9.748;2022-07-29T00:55:14;3.50;;;1.37;;
8887;SDS011;4480;52.370;9.748;2022-07-29T00:57:42;2.00;;;1.50;;
8887;SDS011;4480;52.370;9.748;2022-07-29T01:00:11;3.97;;;1.70;;
8887;SDS011;4480;52.370;9.748;2022-07-29T01:02:40;1.90;;;1.40;;
8887;SDS011;4480;52.370;9.748;2022-07-29T01:05:09;2.67;;;1.77;;
8887;SDS011;4480;52.370;9.748;2022-07-29T01:07:38;4.50;;;1.87;;
8887;SDS011;4480;52.370;9.748;2022-07-29T01:10:06;3.53;;;1.73;;
8887;SDS011;4480;52.370;9.748;2022-07-29T01:12:36;3.30;;;1.27;;
8887;SDS011;4480;52.370;9.748;2022-07-29T01:15:05;4.07;;;1.40;;
8887;SDS011;4480;52.370;9.748;2022-07-29T01:17:36;5.67;;;1.90;;
8887;SDS011;4480;52.370;9.748;2022-07-29T01:20:10;3.27;;;1.57;;
8887;SDS011;4480;52.370;9.748;2022-07-29T01:26:02;4.63;;;1.27;;
8887;SDS011;4480;52.370;9.748;2022-07-29T01:31:31;5.10;;;1.70;;
8887;SDS011;4480;52.370;9.748;2022-07-29T01:34:05;4.30;;;1.87;;
8887;SDS011;4480;52.370;9.748;2022-07-29T01:36:37;2.30;;;1.30;;
8887;SDS011;4480;52.370;9.748;2022-07-29T01:39:10;4.33;;;1.43;;
8887;SDS011;4480;52.370;9.748;2022-07-29T01:41:40;2.63;;;1.30;;
8887;SDS011;4480;52.370;9.748;2022-07-29T01:44:18;4.80;;;1.67;;
8887;SDS011;4480;52.370;9.748;2022-07-29T01:46:54;4.73;;;1.50;;
8887;SDS011;4480;52.370;9.748;2022-07-29T01:49:25;3.43;;;1.67;;
8887;SDS011;4480;52.370;9.748;2022-07-29T01:51:54;4.50;;;1.73;;
8887;SDS011;4480;52.370;9.748;2022-07-29T01:54:26;4.10;;;1.80;;
8887;SDS011;4480;52.370;9.748;2022-07-29T01:57:01;3.30;;;1.40;;
8887;SDS011;4480;52.370;9.748;2022-07-29T01:59:31;2.87;;;1.63;;
8887;SDS011;4480;52.370;9.748;2022-07-29T02:02:01;4.03;;;1.80;;
8887;SDS011;4480;52.370;9.748;2022-07-29T02:04:28;8.70;;;2.07;;
8887;SDS011;4480;52.370;9.748;2022-07-29T02:06:57;1.93;;;1.70;;
8887;SDS011;4480;52.370;9.748;2022-07-29T02:09:27;2.80;;;1.50;;
8887;SDS011;4480;52.370;9.748;2022-07-29T02:11:56;2.37;;;1.50;;
8887;SDS011;4480;52.370;9.748;2022-07-29T02:14:26;3.27;;;1.70;;
8887;SDS011;4480;52.370;9.748;2022-07-29T02:16:56;1.50;;;1.37;;
8887;SDS011;4480;52.370;9.748;2022-07-29T02:19:26;5.10;;;1.53;;
8887;SDS011;4480;52.370;9.748;2022-07-29T02:21:55;2.23;;;1.60;;
8887;SDS011;4480;52.370;9.748;2022-07-29T02:24:25;2.87;;;1.90;;
8887;SDS011;4480;52.370;9.748;2022-07-29T02:26:53;4.30;;;2.30;;
8887;SDS011;4480;52.370;9.748;2022-07-29T02:29:23;2.47;;;1.90;;
8887;SDS011;4480;52.370;9.748;2022-07-29T02:31:53;3.30;;;1.57;;
8887;SDS011;4480;52.370;9.748;2022-07-29T02:34:23;3.10;;;1.40;;
8887;SDS011;4480;52.370;9.748;2022-07-29T02:36:52;2.37;;;1.50;;
8887;SDS011;4480;52.370;9.748;2022-07-29T02:39:21;3.20;;;1.80;;
8887;SDS011;4480;52.370;9.748;2022-07-29T02:41:51;3.77;;;1.57;;
8887;SDS011;4480;52.370;9.748;2022-07-29T02:44:23;3.90;;;1.50;;
8887;SDS011;4480;52.370;9.748;2022-07-29T02:46:54;3.73;;;1.80;;
8887;SDS011;4480;52.370;9.748;2022-07-29T02:49:32;5.57;;;1.60;;
8887;SDS011;4480;52.370;9.748;2022-07-29T02:52:04;3.13;;;1.90;;
8887;SDS011;4480;52.370;9.748;2022-07-29T02:54:37;3.53;;;1.80;;
8887;SDS011;4480;52.370;9.748;2022-07-29T02:57:09;4.63;;;2.03;;
8887;SDS011;4480;52.370;9.748;2022-07-29T02:59:42;2.20;;;2.00;;
8887;SDS011;4480;52.370;9.748;2022-07-29T03:02:13;4.40;;;1.70;;
8887;SDS011;4480;52.370;9.748;2022-07-29T03:04:42;3.00;;;1.80;;
8887;SDS011;4480;52.370;9.748;2022-07-29T03:07:10;5.80;;;1.90;;
8887;SDS011;4480;52.370;9.748;2022-07-29T03:09:40;2.63;;;1.50;;
8887;SDS011;4480;52.370;9.748;2022-07-29T03:12:09;4.03;;;1.60;;
8887;SDS011;4480;52.370;9.748;2022-07-29T03:14:37;2.20;;;2.00;;
8887;SDS011;4480;52.370;9.748;2022-07-29T03:17:05;3.47;;;1.70;;
8887;SDS011;4480;52.370;9.748;2022-07-29T03:19:34;5.23;;;1.77;;
8887;SDS011;4480;52.370;9.748;2022-07-29T03:22:02;5.03;;;1.77;;
8887;SDS011;4480;52.370;9.748;2022-07-29T03:24:31;2.77;;;2.47;;
8887;SDS011;4480;52.370;9.748;2022-07-29T03:27:00;3.30;;;2.07;;
8887;SDS011;4480;52.370;9.748;2022-07-29T03:29:27;4.60;;;1.63;;
8887;SDS011;4480;52.370;9.748;2022-07-29T03:31:55;5.73;;;1.93;;
8887;SDS011;4480;52.370;9.748;2022-07-29T03:34:22;4.73;;;1.90;;
8887;SDS011;4480;52.370;9.748;2022-07-29T03:36:50;3.97;;;2.27;;
8887;SDS011;4480;52.370;9.748;2022-07-29T03:39:19;4.70;;;2.27;;
8887;SDS011;4480;52.370;9.748;2022-07-29T03:41:49;7.13;;;2.40;;
8887;SDS011;4480;52.370;9.748;2022-07-29T03:44:22;3.63;;;1.83;;
8887;SDS011;4480;52.370;9.748;2022-07-29T03:46:50;5.20;;;2.00;;
8887;SDS011;4480;52.370;9.748;2022-07-29T03:49:19;2.47;;;1.77;;
8887;SDS011;4480;52.370;9.748;2022-07-29T03:51:48;8.53;;;2.20;;
8887;SDS011;4480;52.370;9.748;2022-07-29T03:54:16;5.87;;;2.60;;
8887;SDS011;4480;52.370;9.748;2022-07-29T03:56:45;3.17;;;1.90;;
8887;SDS011;4480;52.370;9.748;2022-07-29T03:59:15;3.60;;;1.80;;
8887;SDS011;4480;52.370;9.748;2022-07-29T04:01:45;6.37;;;2.20;;
8887;SDS011;4480;52.370;9.748;2022-07-29T04:04:13;4.57;;;2.00;;
8887;SDS011;4480;52.370;9.748;2022-07-29T04:10:03;2.73;;;2.43;;
8887;SDS011;4480;52.370;9.748;2022-07-29T04:12:31;2.77;;;2.10;;
8887;SDS011;4480;52.370;9.748;2022-07-29T04:14:58;2.70;;;2.50;;
8887;SDS011;4480;52.370;9.748;2022-07-29T04:17:25;4.20;;;1.90;;
8887;SDS011;4480;52.370;9.748;2022-07-29T04:19:52;3.70;;;2.10;;
8887;SDS011;4480;52.370;9.748;2022-07-29T04:22:19;4.90;;;2.03;;
8887;SDS011;4480;52.370;9.748;2022-07-29T04:24:47;4.50;;;2.07;;
8887;SDS011;4480;52.370;9.748;2022-07-29T04:27:16;3.80;;;2.30;;
8887;SDS011;4480;52.370;9.748;2022-07-29T04:29:43;3.00;;;2.73;;
8887;SDS011;4480;52.370;9.748;2022-07-29T04:32:10;3.10;;;1.77;;
8887;SDS011;4480;52.370;9.748;2022-07-29T04:34:37;4.00;;;2.47;;
8887;SDS011;4480;52.370;9.748;2022-07-29T04:37:05;2.20;;;1.87;;
8887;SDS011;4480;52.370;9.748;2022-07-29T04:39:32;3.60;;;2.20;;
8887;SDS011;4480;52.370;9.748;2022-07-29T04:41:59;4.67;;;2.03;;
8887;SDS011;4480;52.370;9.748;2022-07-29T04:44:28;3.77;;;2.07;;
8887;SDS011;4480;52.370;9.748;2022-07-29T04:46:56;2.83;;;2.10;;
8887;SDS011;4480;52.370;9.748;2022-07-29T04:49:23;2.97;;;2.10;;
8887;SDS011;4480;52.370;9.748;2022-07-29T04:51:51;5.10;;;2.27;;
8887;SDS011;4480;52.370;9.748;2022-07-29T04:54:18;8.47;;;2.57;;
8887;SDS011;4480;52.370;9.748;2022-07-29T04:56:45;5.37;;;2.50;;
8887;SDS011;4480;52.370;9.748;2022-07-29T04:59:12;3.70;;;1.90;;
8887;SDS011;4480;52.370;9.748;2022-07-29T05:01:41;3.93;;;2.13;;
8887;SDS011;4480;52.370;9.748;2022-07-29T05:04:08;3.20;;;2.23;;
8887;SDS011;4480;52.370;9.748;2022-07-29T05:06:38;2.83;;;2.10;;
8887;SDS011;4480;52.370;9.748;2022-07-29T05:09:05;2.50;;;2.03;;
8887;SDS011;4480;52.370;9.748;2022-07-29T05:11:32;4.23;;;2.43;;
8887;SDS011;4480;52.370;9.748;2022-07-29T05:14:00;3.13;;;2.27;;
8887;SDS011;4480;52.370;9.748;2022-07-29T05:16:27;4.27;;;2.70;;
8887;SDS011;4480;52.370;9.748;2022-07-29T05:18:55;3.83;;;2.07;;
8887;SDS011;4480;52.370;9.748;2022-07-29T05:21:23;4.23;;;2.47;;
8887;SDS011;4480;52.370;9.748;2022-07-29T05:23:50;3.47;;;2.60;;
8887;SDS011;4480;52.370;9.748;2022-07-29T05:26:18;4.03;;;2.63;;
8887;SDS011;4480;52.370;9.748;2022-07-29T05:28:45;11.20;;;2.67;;
8887;SDS011;4480;52.370;9.748;2022-07-29T05:31:12;6.77;;;2.60;;
8887;SDS011;4480;52.370;9.748;2022-07-29T05:33:40;5.47;;;2.50;;
8887;SDS011;4480;52.370;9.748;2022-07-29T05:36:10;5.77;;;2.53;;
8887;SDS011;4480;52.370;9.748;2022-07-29T05:38:37;9.50;;;2.73;;
8887;SDS011;4480;52.370;9.748;2022-07-29T05:41:05;8.77;;;2.40;;
8887;SDS011;4480;52.370;9.748;2022-07-29T05:43:33;5.70;;;2.80;;
8887;SDS011;4480;52.370;9.748;2022-07-29T05:46:00;8.03;;;2.77;;
8887;SDS011;4480;52.370;9.748;2022-07-29T05:48:27;3.00;;;2.43;;
8887;SDS011;4480;52.370;9.748;2022-07-29T05:50:55;6.90;;;2.40;;
8887;SDS011;4480;52.370;9.748;2022-07-29T05:53:24;8.40;;;3.00;;
8887;SDS011;4480;52.370;9.748;2022-07-29T05:55:51;3.93;;;2.40;;
8887;SDS011;4480;52.370;9.748;2022-07-29T05:58:18;4.93;;;2.40;;
8887;SDS011;4480;52.370;9.748;2022-07-29T06:00:46;4.20;;;2.50;;
8887;SDS011;4480;52.370;9.748;2022-07-29T06:03:13;9.40;;;2.90;;
8887;SDS011;4480;52.370;9.748;2022-07-29T06:05:41;5.47;;;2.87;;
8887;SDS011;4480;52.370;9.748;2022-07-29T06:08:08;5.30;;;2.80;;
8887;SDS011;4480;52.370;9.748;2022-07-29T06:10:37;3.77;;;2.13;;
8887;SDS011;4480;52.370;9.748;2022-07-29T06:13:04;5.07;;;2.90;;
8887;SDS011;4480;52.370;9.748;2022-07-29T06:15:31;4.87;;;2.73;;
8887;SDS011;4480;52.370;9.748;2022-07-29T06:17:59;8.23;;;2.40;;
8887;SDS011;4480;52.370;9.748;2022-07-29T06:20:26;4.20;;;2.60;;
8887;SDS011;4480;52.370;9.748;2022-07-29T06:22:54;4.40;;;2.73;;
8887;SDS011;4480;52.370;9.748;2022-07-29T06:25:22;3.77;;;2.60;;
8887;SDS011;4480;52.370;9.748;2022-07-29T06:27:50;3.27;;;1.97;;
8887;SDS011;4480;52.370;9.748;2022-07-29T06:30:18;13.83;;;3.47;;
8887;SDS011;4480;52.370;9.748;2022-07-29T06:32:45;4.23;;;2.90;;
8887;SDS011;4480;52.370;9.748;2022-07-29T06:35:13;7.30;;;2.43;;
8887;SDS011;4480;52.370;9.748;2022-07-29T06:37:40;5.10;;;2.60;;
8887;SDS011;4480;52.370;9.748;2022-07-29T06:40:08;3.90;;;2.30;;
8887;SDS011;4480;52.370;9.748;2022-07-29T06:42:55;4.50;;;2.53;;
8887;SDS011;4480;52.370;9.748;2022-07-29T06:45:22;4.90;;;2.40;;
8887;SDS011;4480;52.370;9.748;2022-07-29T06:47:49;4.07;;;2.80;;
8887;SDS011;4480;52.370;9.748;2022-07-29T06:50:17;5.80;;;2.67;;
8887;SDS011;4480;52.370;9.748;2022-07-29T06:52:44;5.23;;;2.70;;
8887;SDS011;4480;52.370;9.748;2022-07-29T06:55:11;10.30;;;2.50;;
8887;SDS011;4480;52.370;9.748;2022-07-29T06:57:39;8.07;;;2.50;;
8887;SDS011;4480;52.370;9.748;2022-07-29T07:00:08;6.77;;;2.87;;
8887;SDS011;4480;52.370;9.748;2022-07-29T07:02:36;5.87;;;3.50;;
8887;SDS011;4480;52.370;9.748;2022-07-29T07:05:04;5.80;;;2.90;;
8887;SDS011;4480;52.370;9.748;2022-07-29T07:07:32;4.53;;;2.60;;
8887;SDS011;4480;52.370;9.748;2022-07-29T07:09:59;4.50;;;2.53;;
8887;SDS011;4480;52.370;9.748;2022-07-29T07:15:28;5.60;;;2.87;;
8887;SDS011;4480;52.370;9.748;2022-07-29T07:17:55;4.67;;;2.40;;
8887;SDS011;4480;52.370;9.748;2022-07-29T07:20:23;4.60;;;2.40;;
8887;SDS011;4480;52.370;9.748;2022-07-29T07:22:50;6.00;;;3.17;;
8887;SDS011;4480;52.370;9.748;2022-07-29T07:25:18;4.27;;;2.67;;
8887;SDS011;4480;52.370;9.748;2022-07-29T07:27:45;4.83;;;2.90;;
8887;SDS011;4480;52.370;9.748;2022-07-29T07:30:12;8.10;;;2.50;;
8887;SDS011;4480;52.370;9.748;2022-07-29T07:32:42;5.87;;;2.43;;
8887;SDS011;4480;52.370;9.748;2022-07-29T07:35:09;4.00;;;2.70;;
8887;SDS011;4480;52.370;9.748;2022-07-29T07:37:37;4.97;;;2.40;;
8887;SDS011;4480;52.370;9.748;2022-07-29T07:40:05;7.27;;;3.60;;
8887;SDS011;4480;52.370;9.748;2022-07-29T07:42:34;5.80;;;3.17;;
8887;SDS011;4480;52.370;9.748;2022-07-29T07:45:01;3.73;;;2.27;;
8887;SDS011;4480;52.370;9.748;2022-07-29T07:47:29;5.30;;;2.40;;
8887;SDS011;4480;52.370;9.748;2022-07-29T07:49:58;5.87;;;2.90;;
8887;SDS011;4480;52.370;9.748;2022-07-29T07:52:26;6.07;;;2.37;;
8887;SDS011;4480;52.370;9.748;2022-07-29T07:54:53;6.00;;;2.87;;
8887;SDS011;4480;52.370;9.748;2022-07-29T07:57:21;6.47;;;2.90;;
8887;SDS011;4480;52.370;9.748;2022-07-29T08:02:39;7.80;;;2.80;;
8887;SDS011;4480;52.370;9.748;2022-07-29T08:05:11;4.93;;;2.63;;
8887;SDS011;4480;52.370;9.748;2022-07-29T08:07:42;6.73;;;3.10;;
8887;SDS011;4480;52.370;9.748;2022-07-29T08:10:10;5.33;;;2.67;;
8887;SDS011;4480;52.370;9.748;2022-07-29T08:12:37;9.53;;;3.37;;
8887;SDS011;4480;52.370;9.748;2022-07-29T08:15:05;5.33;;;3.00;;
8887;SDS011;4480;52.370;9.748;2022-07-29T08:17:34;6.90;;;3.03;;
8887;SDS011;4480;52.370;9.748;2022-07-29T08:20:02;5.97;;;2.87;;
8887;SDS011;4480;52.370;9.748;2022-07-29T08:22:31;5.77;;;3.30;;
8887;SDS011;4480;52.370;9.748;2022-07-29T08:24:59;7.33;;;3.07;;
8887;SDS011;4480;52.370;9.748;2022-07-29T08:27:26;5.23;;;3.00;;
8887;SDS011;4480;52.370;9.748;2022-07-29T08:29:56;8.53;;;2.57;;
8887;SDS011;4480;52.370;9.748;2022-07-29T08:32:23;5.20;;;3.20;;
8887;SDS011;4480;52.370;9.748;2022-07-29T08:34:51;9.47;;;3.40;;
8887;SDS011;4480;52.370;9.748;2022-07-29T08:37:18;4.93;;;3.30;;
8887;SDS011;4480;52.370;9.748;2022-07-29T08:39:47;4.23;;;2.80;;
8887;SDS011;4480;52.370;9.748;2022-07-29T08:42:15;5.20;;;2.90;;
8887;SDS011;4480;52.370;9.748;2022-07-29T08:44:43;4.67;;;2.80;;
8887;SDS011;4480;52.370;9.748;2022-07-29T08:47:10;6.40;;;3.23;;
8887;SDS011;4480;52.370;9.748;2022-07-29T08:49:40;6.97;;;2.80;;
8887;SDS011;4480;52.370;9.748;2022-07-29T08:52:09;3.50;;;2.50;;
8887;SDS011;4480;52.370;9.748;2022-07-29T08:54:38;9.17;;;2.90;;
8887;SDS011;4480;52.370;9.748;2022-07-29T08:57:08;4.10;;;2.77;;
8887;SDS011;4480;52.370;9.748;2022-07-29T08:59:37;7.23;;;2.90;;
8887;SDS011;4480;52.370;9.748;2022-07-29T09:02:06;5.73;;;2.70;;
8887;SDS011;4480;52.370;9.748;2022-07-29T09:04:44;4.00;;;3.37;;
8887;SDS011;4480;52.370;9.748;2022-07-29T09:07:13;4.90;;;3.07;;
8887;SDS011;4480;52.370;9.748;2022-07-29T09:09:42;6.93;;;3.70;;
8887;SDS011;4480;52.370;9.748;2022-07-29T09:12:11;3.83;;;2.80;;
8887;SDS011;4480;52.370;9.748;2022-07-29T09:14:39;3.63;;;2.70;;
8887;SDS011;4480;52.370;9.748;2022-07-29T09:17:07;5.67;;;2.60;;
8887;SDS011;4480;52.370;9.748;2022-07-29T09:19:34;7.87;;;2.60;;
8887;SDS011;4480;52.370;9.748;2022-07-29T09:22:03;3.43;;;2.70;;
8887;SDS011;4480;52.370;9.748;2022-07-29T09:24:39;9.63;;;2.90;;
8887;SDS011;4480;52.370;9.748;2022-07-29T09:27:08;5.80;;;2.50;;
8887;SDS011;4480;52.370;9.748;2022-07-29T09:29:47;4.63;;;2.73;;
8887;SDS011;4480;52.370;9.748;2022-07-29T09:32:23;6.80;;;2.80;;
8887;SDS011;4480;52.370;9.748;2022-07-29T09:34:51;7.93;;;4.20;;
8887;SDS011;4480;52.370;9.748;2022-07-29T09:37:39;8.40;;;2.67;;
8887;SDS011;4480;52.370;9.748;2022-07-29T09:40:10;3.83;;;2.63;;
8887;SDS011;4480;52.370;9.748;2022-07-29T09:42:40;8.47;;;2.97;;
8887;SDS011;4480;52.370;9.748;2022-07-29T09:45:08;4.57;;;3.17;;
8887;SDS011;4480;52.370;9.748;2022-07-29T09:47:42;5.90;;;3.07;;
8887;SDS011;4480;52.370;9.748;2022-07-29T09:50:14;6.03;;;3.53;;
8887;SDS011;4480;52.370;9.748;2022-07-29T09:52:45;5.67;;;3.50;;
8887;SDS011;4480;52.370;9.748;2022-07-29T09:55:13;5.87;;;3.90;;
8887;SDS011;4480;52.370;9.748;2022-07-29T09:57:42;3.47;;;3.10;;
8887;SDS011;4480;52.370;9.748;2022-07-29T10:00:11;7.43;;;2.80;;
8887;SDS011;4480;52.370;9.748;2022-07-29T10:02:42;3.77;;;3.07;;
8887;SDS011;4480;52.370;9.748;2022-07-29T10:05:18;8.67;;;3.40;;
8887;SDS011;4480;52.370;9.748;2022-07-29T10:07:47;5.83;;;3.20;;
8887;SDS011;4480;52.370;9.748;2022-07-29T10:10:19;4.53;;;2.70;;
8887;SDS011;4480;52.370;9.748;2022-07-29T10:12:49;4.93;;;3.53;;
8887;SDS011;4480;52.370;9.748;2022-07-29T10:15:19;8.87;;;2.70;;
8887;SDS011;4480;52.370;9.748;2022-07-29T10:17:48;3.33;;;3.03;;
8887;SDS011;4480;52.370;9.748;2022-07-29T10:20:16;5.03;;;3.20;;
8887;SDS011;4480;52.370;9.748;2022-07-29T10:22:43;4.77;;;3.00;;
8887;SDS011;4480;52.370;9.748;2022-07-29T10:25:12;5.43;;;3.03;;
8887;SDS011;4480;52.370;9.748;2022-07-29T10:27:40;7.57;;;3.00;;
8887;SDS011;4480;52.370;9.748;2022-07-29T10:30:10;4.67;;;3.30;;
8887;SDS011;4480;52.370;9.748;2022-07-29T10:32:40;4.03;;;2.93;;
8887;SDS011;4480;52.370;9.748;2022-07-29T10:35:29;6.80;;;3.00;;
8887;SDS011;4480;52.370;9.748;2022-07-29T10:38:20;3.57;;;2.53;;
8887;SDS011;4480;52.370;9.748;2022-07-29T10:40:59;4.87;;;2.80;;
8887;SDS011;4480;52.370;9.748;2022-07-29T10:43:53;6.27;;;3.30;;
8887;SDS011;4480;52.370;9.748;2022-07-29T10:46:25;4.50;;;3.10;;
8887;SDS011;4480;52.370;9.748;2022-07-29T10:54:36;5.00;;;3.20;;
8887;SDS011;4480;52.370;9.748;2022-07-29T10:57:25;8.50;;;3.60;;
8887;SDS011;4480;52.370;9.748;2022-07-29T11:02:59;8.30;;;3.10;;
8887;SDS011;4480;52.370;9.748;2022-07-29T11:05:27;3.47;;;2.50;;
8887;SDS011;4480;52.370;9.748;2022-07-29T11:10:48;6.13;;;3.30;;
8887;SDS011;4480;52.370;9.748;2022-07-29T11:16:12;2.87;;;2.57;;
8887;SDS011;4480;52.370;9.748;2022-07-29T11:21:42;7.30;;;3.30;;
8887;SDS011;4480;52.370;9.748;2022-07-29T11:24:12;6.47;;;3.07;;
8887;SDS011;4480;52.370;9.748;2022-07-29T11:26:40;5.53;;;3.57;;
8887;SDS011;4480;52.370;9.748;2022-07-29T11:29:14;3.73;;;2.93;;
8887;SDS011;4480;52.370;9.748;2022-07-29T11:31:45;7.30;;;3.53;;
8887;SDS011;4480;52.370;9.748;2022-07-29T11:34:20;5.70;;;2.77;;
8887;SDS011;4480;52.370;9.748;2022-07-29T11:40:07;5.67;;;2.87;;
8887;SDS011;4480;52.370;9.748;2022-07-29T11:42:39;5.13;;;2.80;;
8887;SDS011;4480;52.370;9.748;2022-07-29T11:45:09;4.73;;;2.93;;
8887;SDS011;4480;52.370;9.748;2022-07-29T11:47:39;5.00;;;3.30;;
8887;SDS011;4480;52.370;9.748;2022-07-29T11:50:08;5.30;;;2.87;;
8887;SDS011;4480;52.370;9.748;2022-07-29T11:52:41;4.80;;;3.23;;
8887;SDS011;4480;52.370;9.748;2022-07-29T11:55:11;6.10;;;3.30;;
8887;SDS011;4480;52.370;9.748;2022-07-29T11:57:45;4.97;;;2.80;;
8887;SDS011;4480;52.370;9.748;2022-07-29T12:00:21;4.43;;;2.63;;
8887;SDS011;4480;52.370;9.748;2022-07-29T12:02:50;3.87;;;3.07;;
8887;SDS011;4480;52.370;9.748;2022-07-29T12:05:18;7.80;;;3.20;;
8887;SDS011;4480;52.370;9.748;2022-07-29T12:07:48;3.60;;;2.77;;
8887;SDS011;4480;52.370;9.748;2022-07-29T12:10:15;3.50;;;2.63;;
8887;SDS011;4480;52.370;9.748;2022-07-29T12:12:42;5.30;;;3.00;;
8887;SDS011;4480;52.370;9.748;2022-07-29T12:15:17;3.00;;;2.50;;
8887;SDS011;4480;52.370;9.748;2022-07-29T12:17:45;5.20;;;3.07;;
8887;SDS011;4480;52.370;9.748;2022-07-29T12:20:13;4.37;;;2.90;;
8887;SDS011;4480;52.370;9.748;2022-07-29T12:22:51;7.43;;;2.60;;
8887;SDS011;4480;52.370;9.748;2022-07-29T12:25:20;5.60;;;3.20;;
8887;SDS011;4480;52.370;9.748;2022-07-29T12:27:48;4.20;;;2.73;;
8887;SDS011;4480;52.370;9.748;2022-07-29T12:30:33;3.43;;;2.73;;
8887;SDS011;4480;52.370;9.748;2022-07-29T12:33:10;8.00;;;2.77;;
8887;SDS011;4480;52.370;9.748;2022-07-29T12:35:39;4.57;;;2.83;;
8887;SDS011;4480;52.370;9.748;2022-07-29T12:38:08;4.57;;;2.60;;
8887;SDS011;4480;52.370;9.748;2022-07-29T12:40:36;4.53;;;3.07;;
8887;SDS011;4480;52.370;9.748;2022-07-29T12:43:04;4.47;;;2.63;;
8887;SDS011;4480;52.370;9.748;2022-07-29T12:45:32;6.90;;;3.10;;
8887;SDS011;4480;52.370;9.748;2022-07-29T12:48:00;5.10;;;3.07;;
8887;SDS011;4480;52.370;9.748;2022-07-29T12:50:27;4.87;;;2.40;;
8887;SDS011;4480;52.370;9.748;2022-07-29T12:53:09;5.90;;;2.70;;
8887;SDS011;4480;52.370;9.748;2022-07-29T12:55:38;4.37;;;2.77;;
8887;SDS011;4480;52.370;9.748;2022-07-29T12:58:06;9.00;;;3.40;;
8887;SDS011;4480;52.370;9.748;2022-07-29T13:00:33;4.53;;;3.03;;
8887;SDS011;4480;52.370;9.748;2022-07-29T13:03:00;5.20;;;2.33;;
8887;SDS011;4480;52.370;9.748;2022-07-29T13:05:38;7.87;;;3.00;;
8887;SDS011;4480;52.370;9.748;2022-07-29T13:08:12;3.70;;;2.70;;
8887;SDS011;4480;52.370;9.748;2022-07-29T13:10:40;5.83;;;2.20;;
8887;SDS011;4480;52.370;9.748;2022-07-29T13:13:08;6.10;;;2.97;;
8887;SDS011;4480;52.370;9.748;2022-07-29T13:15:36;4.00;;;2.97;;
8887;SDS011;4480;52.370;9.748;2022-07-29T13:18:04;4.87;;;3.57;;
8887;SDS011;4480;52.370;9.748;2022-07-29T13:20:52;4.23;;;3.80;;
8887;SDS011;4480;52.370;9.748;2022-07-29T13:23:20;8.83;;;3.40;;
8887;SDS011;4480;52.370;9.748;2022-07-29T13:25:48;4.60;;;3.30;;
8887;SDS011;4480;52.370;9.748;2022-07-29T13:28:15;7.30;;;3.03;;
8887;SDS011;4480;52.370;9.748;2022-07-29T13:30:42;12.20;;;3.27;;
8887;SDS011;4480;52.370;9.748;2022-07-29T13:33:09;4.67;;;3.73;;
8887;SDS011;4480;52.370;9.748;2022-07-29T13:35:37;5.77;;;2.93;;
8887;SDS011;4480;52.370;9.748;2022-07-29T13:38:04;3.97;;;2.97;;
8887;SDS011;4480;52.370;9.748;2022-07-29T13:40:32;5.27;;;3.57;;
8887;SDS011;4480;52.370;9.748;2022-07-29T13:43:00;7.00;;;3.93;;
8887;SDS011;4480;52.370;9.748;2022-07-29T13:45:27;6.63;;;4.40;;
8887;SDS011;4480;52.370;9.748;2022-07-29T13:47:55;8.53;;;3.60;;
8887;SDS011;4480;52.370;9.748;2022-07-29T13:50:22;5.83;;;3.73;;
8887;SDS011;4480;52.370;9.748;2022-07-29T13:52:49;4.53;;;3.70;;
8887;SDS011;4480;52.370;9.748;2022-07-29T13:55:16;4.40;;;3.40;;
8887;SDS011;4480;52.370;9.748;2022-07-29T13:57:45;5.23;;;3.30;;
8887;SDS011;4480;52.370;9.748;2022-07-29T14:00:13;5.87;;;3.50;;
8887;SDS011;4480;52.370;9.748;2022-07-29T14:02:41;6.60;;;3.50;;
8887;SDS011;4480;52.370;9.748;2022-07-29T14:05:08;5.20;;;3.27;;
8887;SDS011;4480;52.370;9.748;2022-07-29T14:07:36;5.23;;;3.30;;
8887;SDS011;4480;52.370;9.748;2022-07-29T14:10:04;6.20;;;3.10;;
8887;SDS011;4480;52.370;9.748;2022-07-29T14:12:32;4.97;;;3.43;;
8887;SDS011;4480;52.370;9.748;2022-07-29T14:15:00;3.97;;;3.03;;
8887;SDS011;4480;52.370;9.748;2022-07-29T14:17:27;3.60;;;2.97;;
8887;SDS011;4480;52.370;9.748;2022-07-29T14:19:55;4.93;;;3.00;;
8887;SDS011;4480;52.370;9.748;2022-07-29T14:22:22;3.70;;;3.07;;
8887;SDS011;4480;52.370;9.748;2022-07-29T14:24:50;3.90;;;3.47;;
8887;SDS011;4480;52.370;9.748;2022-07-29T14:27:17;4.63;;;3.17;;
8887;SDS011;4480;52.370;9.748;2022-07-29T14:29:45;3.93;;;3.40;;
8887;SDS011;4480;52.370;9.748;2022-07-29T14:32:13;4.23;;;3.27;;
8887;SDS011;4480;52.370;9.748;2022-07-29T14:34:41;5.50;;;3.63;;
8887;SDS011;4480;52.370;9.748;2022-07-29T14:37:08;7.53;;;3.60;;
8887;SDS011;4480;52.370;9.748;2022-07-29T14:39:35;4.03;;;3.27;;
8887;SDS011;4480;52.370;9.748;2022-07-29T14:42:03;5.33;;;3.67;;
8887;SDS011;4480;52.370;9.748;2022-07-29T14:44:30;4.73;;;3.80;;
8887;SDS011;4480;52.370;9.748;2022-07-29T14:46:57;9.30;;;3.40;;
8887;SDS011;4480;52.370;9.748;2022-07-29T14:49:27;4.30;;;3.13;;
8887;SDS011;4480;52.370;9.748;2022-07-29T14:51:54;8.13;;;3.40;;
8887;SDS011;4480;52.370;9.748;2022-07-29T14:54:21;5.60;;;3.70;;
8887;SDS011;4480;52.370;9.748;2022-07-29T14:56:48;7.17;;;3.17;;
8887;SDS011;4480;52.370;9.748;2022-07-29T14:59:16;4.83;;;3.07;;
8887;SDS011;4480;52.370;9.748;2022-07-29T15:01:44;6.93;;;2.90;;
8887;SDS011;4480;52.370;9.748;2022-07-29T15:04:11;4.20;;;2.80;;
8887;SDS011;4480;52.370;9.748;2022-07-29T15:06:39;3.40;;;2.83;;
8887;SDS011;4480;52.370;9.748;2022-07-29T15:09:06;5.70;;;3.30;;
8887;SDS011;4480;52.370;9.748;2022-07-29T15:11:34;5.47;;;3.70;;
8887;SDS011;4480;52.370;9.748;2022-07-29T15:14:01;6.30;;;3.10;;
8887;SDS011;4480;52.370;9.748;2022-07-29T15:16:28;5.63;;;3.60;;
8887;SDS011;4480;52.370;9.748;2022-07-29T15:18:55;4.60;;;3.20;;
8887;SDS011;4480;52.370;9.748;2022-07-29T15:21:22;7.97;;;3.70;;
8887;SDS011;4480;52.370;9.748;2022-07-29T15:23:51;6.83;;;2.87;;
8887;SDS011;4480;52.370;9.748;2022-07-29T15:26:18;3.97;;;3.40;;
8887;SDS011;4480;52.370;9.748;2022-07-29T15:28:45;6.70;;;3.60;;
8887;SDS011;4480;52.370;9.748;2022-07-29T15:31:13;5.73;;;3.33;;
8887;SDS011;4480;52.370;9.748;2022-07-29T15:33:40;5.10;;;3.40;;
8887;SDS011;4480;52.370;9.748;2022-07-29T15:36:07;5.00;;;3.60;;
8887;SDS011;4480;52.370;9.748;2022-07-29T15:38:36;6.60;;;3.23;;
8887;SDS011;4480;52.370;9.748;2022-07-29T15:41:06;6.00;;;3.33;;
8887;SDS011;4480;52.370;9.748;2022-07-29T15:43:34;5.73;;;3.10;;
8887;SDS011;4480;52.370;9.748;2022-07-29T15:46:02;3.87;;;3.10;;
8887;SDS011;4480;52.370;9.748;2022-07-29T15:48:47;5.03;;;3.60;;
8887;SDS011;4480;52.370;9.748;2022-07-29T15:51:14;5.33;;;3.43;;
8887;SDS011;4480;52.370;9.748;2022-07-29T15:53:41;7.93;;;3.27;;
8887;SDS011;4480;52.370;9.748;2022-07-29T15:56:10;5.27;;;3.30;;
8887;SDS011;4480;52.370;9.748;2022-07-29T15:58:37;5.60;;;3.23;;
8887;SDS011;4480;52.370;9.748;2022-07-29T16:01:04;6.30;;;3.27;;
8887;SDS011;4480;52.370;9.748;2022-07-29T16:03:31;4.13;;;2.90;;